Time;durP1;ratioP1;P1;durP2;ratioP2;P2;SDS_P1;SDS_P2;PMS_P1;PMS_P2;Temp;Humidity;BMP_temperature;BMP_pressure;BME280_temperature;BME280_humidity;BME280_pressure;Samples;Min_cycle;Max_cycle;Signal;HPM_P1;HPM_P2
2022/10/15 00:01:04;;;;;;;;;;;;;;;13.57;90.55;97407.16;5066030;28;19978;-57
2022/10/15 00:03:32;;;;;;;;;;;;;;;13.58;90.47;97403.31;5067566;28;19932;-57
2022/10/15 00:06:03;;;;;;;;;;;;;;;13.59;90.67;97404.09;5071650;28;19959;-57
2022/10/15 00:08:31;;;;;;;;;;;;;;;13.60;90.46;97405.69;5069626;28;19924;-57
2022/10/15 00:11:02;;;;;;;;;;;;;;;13.55;90.51;97398.53;5072247;28;19924;-57
2022/10/15 00:13:30;;;;;;;;;;;;;;;13.55;90.58;97393.06;5070999;28;19928;-57
2022/10/15 00:16:02;;;;;;;;;;;;;;;13.51;90.56;97392.16;5067510;28;19928;-57
2022/10/15 00:18:29;;;;;;;;;;;;;;;13.54;90.73;97383.28;5071585;28;20389;-57
2022/10/15 00:20:57;;;;;;;;;;;;;;;13.54;90.72;97390.69;5070013;28;19970;-57
2022/10/15 00:23:25;;;;;;;;;;;;;;;13.54;90.80;97394.22;5071003;28;19933;-57
2022/10/15 00:26:00;;;;;;;;;;;;;;;13.52;90.73;97385.56;5071860;28;19925;-57
2022/10/15 00:28:28;;;;;;;;;;;;;;;13.54;90.70;97391.47;5071724;28;19925;-57
2022/10/15 00:31:03;;;;;;;;;;;;;;;13.52;90.61;97382.03;5076902;28;19924;-57
2022/10/15 00:33:34;;;;;;;;;;;;;;;13.58;90.51;97381.47;5051542;28;19931;-57
2022/10/15 00:36:03;;;;;;;;;;;;;;;13.56;90.71;97378.28;5037025;28;20270;-57
2022/10/15 00:38:36;;;;;;;;;;;;;;;13.50;90.88;97376.91;5031695;28;19925;-57
2022/10/15 00:41:05;;;;;;;;;;;;;;;13.46;91.15;97373.28;5066577;28;20324;-57
2022/10/15 00:43:39;;;;;;;;;;;;;;;13.53;90.86;97373.53;5030492;28;19925;-57
2022/10/15 00:46:15;;;;;;;;;;;;;;;13.51;91.14;97366.81;5024135;28;19925;-57
2022/10/15 00:48:43;;;;;;;;;;;;;;;13.51;90.99;97364.88;5041922;28;19926;-57
2022/10/15 00:51:11;;;;;;;;;;;;;;;13.52;90.89;97368.38;5028337;28;19931;-57
2022/10/15 00:53:41;;;;;;;;;;;;;;;13.50;91.30;97363.28;5059419;28;19924;-57
2022/10/15 00:56:09;;;;;;;;;;;;;;;13.56;91.12;97361.91;5051005;28;19929;-57
2022/10/15 01:01:37;;;;;;;;;;;;;;;13.54;91.29;97356.00;5022610;28;19925;-57
2022/10/15 01:04:05;;;;;;;;;;;;;;;13.56;91.24;97342.78;5060138;28;19949;-57
2022/10/15 01:06:33;;;;;;;;;;;;;;;13.54;91.27;97334.16;5029419;28;19925;-57
2022/10/15 01:09:01;;;;;;;;;;;;;;;13.49;91.38;97333.63;5027434;28;19971;-57
2022/10/15 01:11:33;;;;;;;;;;;;;;;13.52;91.30;97333.69;5029519;28;19925;-57
2022/10/15 01:14:12;;;;;;;;;;;;;;;13.53;91.57;97335.31;5029262;28;20285;-57
2022/10/15 01:16:43;;;;;;;;;;;;;;;13.49;91.68;97328.16;5023024;28;19960;-57
2022/10/15 01:19:15;;;;;;;;;;;;;;;13.47;91.69;97331.22;5026920;28;19964;-57
2022/10/15 01:21:44;;;;;;;;;;;;;;;13.47;91.72;97333.94;5053170;28;19947;-57
2022/10/15 01:24:26;;;;;;;;;;;;;;;13.48;91.68;97327.38;5024589;28;20031;-57
2022/10/15 01:27:09;;;;;;;;;;;;;;;13.47;92.05;97323.03;5026786;28;20275;-57
2022/10/15 01:30:07;;;;;;;;;;;;;;;13.50;92.01;97325.06;5045431;28;20008;-57
2022/10/15 01:32:37;;;;;;;;;;;;;;;13.50;91.98;97322.34;5034316;28;19957;-57
2022/10/15 01:35:07;;;;;;;;;;;;;;;13.52;91.88;97314.59;5050522;28;19978;-57
2022/10/15 01:37:37;;;;;;;;;;;;;;;13.53;92.04;97312.66;5076330;28;20254;-57
2022/10/15 01:40:06;;;;;;;;;;;;;;;13.53;92.23;97312.66;5046841;28;20546;-57
2022/10/15 01:42:39;;;;;;;;;;;;;;;13.56;92.23;97318.22;5081752;28;19929;-57
2022/10/15 01:45:08;;;;;;;;;;;;;;;13.58;92.17;97315.97;5057309;28;19944;-57
2022/10/15 01:47:56;;;;;;;;;;;;;;;13.55;92.52;97311.19;5034316;28;20405;-57
2022/10/15 01:50:26;;;;;;;;;;;;;;;13.57;92.38;97306.16;5031574;28;20380;-57
2022/10/15 01:52:55;;;;;;;;;;;;;;;13.60;92.51;97302.75;5067818;28;20034;-57
2022/10/15 01:55:23;;;;;;;;;;;;;;;13.58;92.69;97298.78;5043478;28;19925;-57
2022/10/15 01:57:51;;;;;;;;;;;;;;;13.53;92.74;97297.09;5030974;28;20421;-57
2022/10/15 02:00:20;;;;;;;;;;;;;;;13.58;92.72;97302.31;5027030;28;20389;-57
2022/10/15 02:02:48;;;;;;;;;;;;;;;13.50;92.79;97291.53;5059535;28;19971;-57
2022/10/15 02:05:19;;;;;;;;;;;;;;;13.54;92.87;97297.91;5056733;28;19929;-57
2022/10/15 02:07:54;;;;;;;;;;;;;;;13.49;93.02;97290.75;5029198;28;19979;-57
2022/10/15 02:10:24;;;;;;;;;;;;;;;13.47;93.12;97292.22;5024679;28;19929;-57
2022/10/15 02:12:57;;;;;;;;;;;;;;;13.46;93.28;97288.69;5030551;28;19932;-57
2022/10/15 02:15:26;;;;;;;;;;;;;;;13.53;93.26;97290.81;5022062;28;20437;-56
2022/10/15 02:17:56;;;;;;;;;;;;;;;13.53;93.30;97291.66;5034404;28;19925;-57
2022/10/15 02:20:29;;;;;;;;;;;;;;;13.53;93.51;97288.09;5031636;28;20020;-57
2022/10/15 02:23:00;;;;;;;;;;;;;;;13.55;93.43;97278.44;5033653;28;19929;-57
2022/10/15 02:25:28;;;;;;;;;;;;;;;13.54;93.62;97282.31;5015835;28;19925;-57
2022/10/15 02:27:57;;;;;;;;;;;;;;;13.55;93.82;97272.97;5066471;28;19925;-57
2022/10/15 02:30:26;;;;;;;;;;;;;;;13.52;93.60;97279.13;5052042;28;19979;-57
2022/10/15 02:32:55;;;;;;;;;;;;;;;13.51;93.81;97276.75;5030116;28;19932;-57
2022/10/15 02:35:23;;;;;;;;;;;;;;;13.52;93.71;97278.31;5032088;28;20366;-57
2022/10/15 02:37:53;;;;;;;;;;;;;;;13.48;93.88;97272.78;5034288;28;19979;-57
2022/10/15 02:40:21;;;;;;;;;;;;;;;13.48;93.91;97275.50;5033085;28;19936;-57
2022/10/15 02:42:50;;;;;;;;;;;;;;;13.46;94.04;97277.78;5033452;28;19957;-57
2022/10/15 02:45:18;;;;;;;;;;;;;;;13.40;94.08;97268.25;5042381;28;20356;-57
2022/10/15 02:47:46;;;;;;;;;;;;;;;13.48;94.03;97267.34;5033793;28;19925;-57
2022/10/15 02:50:14;;;;;;;;;;;;;;;13.50;94.19;97266.97;5033005;28;19932;-57
2022/10/15 02:52:43;;;;;;;;;;;;;;;13.51;94.15;97260.38;5038162;28;19925;-57
2022/10/15 02:55:12;;;;;;;;;;;;;;;13.48;93.96;97256.41;5035252;28;19925;-57
2022/10/15 02:57:41;;;;;;;;;;;;;;;13.51;94.21;97265.84;5029117;28;19933;-57
2022/10/15 03:00:10;;;;;;;;;;;;;;;13.49;94.14;97258.00;5042822;28;19936;-57
2022/10/15 03:02:39;;;;;;;;;;;;;;;13.48;94.34;97263.81;5035147;28;19925;-57
2022/10/15 03:05:07;;;;;;;;;;;;;;;13.49;94.23;97266.19;5032785;28;19936;-57
2022/10/15 03:10:30;;;;;;;;;;;;;;;13.47;94.21;97252.06;5038434;28;19932;-57
2022/10/15 03:13:02;;;;;;;;;;;;;;;13.49;94.12;97249.03;5028659;28;19925;-57
2022/10/15 03:15:32;;;;;;;;;;;;;;;13.51;94.07;97246.72;5055862;28;20447;-57
2022/10/15 03:17:59;;;;;;;;;;;;;;;13.51;94.06;97255.72;5035164;28;19933;-57
2022/10/15 03:20:27;;;;;;;;;;;;;;;13.50;94.38;97251.41;5033563;28;20425;-57
2022/10/15 03:22:55;;;;;;;;;;;;;;;13.52;94.26;97249.09;5048769;28;19932;-57
2022/10/15 03:25:23;;;;;;;;;;;;;;;13.52;94.17;97249.09;5030126;28;20138;-57
2022/10/15 03:28:24;;;;;;;;;;;;;;;13.49;94.16;97247.09;5031728;28;19983;-57
2022/10/15 03:30:54;;;;;;;;;;;;;;;13.53;94.16;97242.53;5048300;28;20047;-57
2022/10/15 03:36:18;;;;;;;;;;;;;;;13.51;94.20;97241.28;5044789;28;19926;-57
2022/10/15 03:38:47;;;;;;;;;;;;;;;13.50;94.22;97245.94;5031383;28;20012;-57
2022/10/15 03:41:16;;;;;;;;;;;;;;;13.52;94.25;97240.91;5048262;28;19943;-57
2022/10/15 03:43:45;;;;;;;;;;;;;;;13.53;94.16;97242.53;5064620;28;19929;-57
2022/10/15 03:46:15;;;;;;;;;;;;;;;13.53;94.40;97239.78;5026939;28;19936;-57
2022/10/15 03:48:48;;;;;;;;;;;;;;;13.51;94.41;97244.78;5045822;28;19947;-57
2022/10/15 03:51:16;;;;;;;;;;;;;;;13.54;94.48;97244.09;5031517;28;19936;-57
2022/10/15 03:53:52;;;;;;;;;;;;;;;13.53;94.53;97248.00;5030205;28;20010;-57
2022/10/15 03:56:21;;;;;;;;;;;;;;;13.54;94.48;97248.78;5033914;28;19934;-57
2022/10/15 03:59:15;;;;;;;;;;;;;;;13.53;94.51;97245.25;5035029;28;19932;-57
2022/10/15 04:01:44;;;;;;;;;;;;;;;13.53;94.46;97247.16;5058107;28;20445;-57
2022/10/15 04:04:12;;;;;;;;;;;;;;;13.50;94.46;97248.66;5027676;28;19933;-57
2022/10/15 04:07:05;;;;;;;;;;;;;;;13.52;94.51;97246.38;5035342;28;19925;-58
2022/10/15 04:09:33;;;;;;;;;;;;;;;13.51;94.69;97252.19;5063275;28;19924;-57
2022/10/15 04:12:27;;;;;;;;;;;;;;;13.54;94.70;97251.50;5047465;28;19925;-57
2022/10/15 04:14:56;;;;;;;;;;;;;;;13.53;94.95;97245.25;5049576;28;20536;-57
2022/10/15 04:17:27;;;;;;;;;;;;;;;13.49;94.96;97249.81;5059776;28;19974;-57
2022/10/15 04:19:56;;;;;;;;;;;;;;;13.50;94.91;97251.41;5032317;28;19925;-57
2022/10/15 04:22:26;;;;;;;;;;;;;;;13.52;95.28;97248.31;5033121;28;20332;-57
2022/10/15 04:24:59;;;;;;;;;;;;;;;13.53;95.48;97245.25;5035519;28;20374;-61
2022/10/15 04:27:28;;;;;;;;;;;;;;;13.53;95.42;97247.16;5035722;28;20285;-58
2022/10/15 04:30:45;;;;;;;;;;;;;;;13.59;95.51;97254.00;5039686;28;20297;-57
2022/10/15 04:33:21;;;;;;;;;;;;;;;13.54;95.27;97260.47;5037768;28;19934;-57
2022/10/15 04:36:00;;;;;;;;;;;;;;;13.55;94.99;97255.81;5054928;28;19971;-57
2022/10/15 04:38:44;;;;;;;;;;;;;;;13.57;95.35;97259.78;5068169;28;19929;-57
2022/10/15 04:41:13;;;;;;;;;;;;;;;13.61;95.37;97266.13;5036454;28;20366;-57
2022/10/15 04:43:57;;;;;;;;;;;;;;;13.62;95.20;97256.81;5030628;28;19925;-57
2022/10/15 04:46:26;;;;;;;;;;;;;;;13.59;95.24;97259.44;5071909;28;19928;-57
2022/10/15 04:48:57;;;;;;;;;;;;;;;13.60;95.23;97264.56;5084161;28;19924;-57
2022/10/15 04:51:26;;;;;;;;;;;;;;;13.62;95.23;97262.25;5050097;28;20075;-57
2022/10/15 04:54:15;;;;;;;;;;;;;;;13.62;95.14;97259.53;5050364;28;19929;-57
2022/10/15 04:57:23;;;;;;;;;;;;;;;13.59;95.32;97262.97;5053508;28;19928;-57
2022/10/15 04:59:53;;;;;;;;;;;;;;;13.62;95.52;97264.19;5081523;28;19932;-57
2022/10/15 05:02:24;;;;;;;;;;;;;;;13.62;95.55;97258.75;5061984;28;19960;-57
2022/10/15 05:05:09;;;;;;;;;;;;;;;13.62;95.40;97259.53;5054654;28;19931;-57
2022/10/15 05:07:49;;;;;;;;;;;;;;;13.53;95.48;97255.34;5070031;28;19924;-57
2022/10/15 05:10:17;;;;;;;;;;;;;;;13.57;95.70;97259.78;5053227;28;20274;-57
2022/10/15 05:15:42;;;;;;;;;;;;;;;13.58;95.70;97264.13;5046344;28;20055;-57
2022/10/15 05:18:10;;;;;;;;;;;;;;;13.62;95.74;97267.72;5050358;28;20015;-57
2022/10/15 05:20:49;;;;;;;;;;;;;;;13.61;95.74;97271.59;5048656;28;19928;-57
2022/10/15 05:23:19;;;;;;;;;;;;;;;13.61;95.76;97266.13;5051199;28;19924;-57
2022/10/15 05:25:59;;;;;;;;;;;;;;;13.63;95.92;97274.78;5049965;28;20456;-57
2022/10/15 05:31:26;;;;;;;;;;;;;;;13.61;95.67;97277.06;5041515;28;19935;-57
2022/10/15 05:34:06;;;;;;;;;;;;;;;13.67;95.57;97285.00;5049952;28;20344;-57
2022/10/15 05:36:40;;;;;;;;;;;;;;;13.68;95.73;97275.66;5050758;28;19924;-58
2022/10/15 05:39:14;;;;;;;;;;;;;;;13.69;95.55;97286.25;5040930;28;20346;-57
2022/10/15 05:41:44;;;;;;;;;;;;;;;13.70;95.57;97290.56;5048704;28;19924;-57
2022/10/15 05:44:13;;;;;;;;;;;;;;;13.72;95.77;97295.66;5084491;28;19924;-57
2022/10/15 05:46:41;;;;;;;;;;;;;;;13.69;95.53;97299.09;5045732;28;19924;-57
2022/10/15 05:49:13;;;;;;;;;;;;;;;13.69;95.55;97299.91;5067385;28;19947;-57
2022/10/15 05:51:57;;;;;;;;;;;;;;;13.67;95.84;97298.66;5039184;28;19940;-57
2022/10/15 05:54:43;;;;;;;;;;;;;;;13.73;95.71;97305.44;5052345;28;19932;-57
2022/10/15 05:57:11;;;;;;;;;;;;;;;13.73;95.83;97303.50;5054924;28;19933;-57
2022/10/15 05:59:38;;;;;;;;;;;;;;;13.77;95.81;97304.41;5071088;28;20297;-57
2022/10/15 06:02:07;;;;;;;;;;;;;;;13.75;95.70;97303.97;5049137;28;19924;-56
2022/10/15 06:04:35;;;;;;;;;;;;;;;13.77;95.69;97309.09;5039650;28;20287;-57
2022/10/15 06:07:06;;;;;;;;;;;;;;;13.73;95.63;97300.78;5053523;28;19931;-57
2022/10/15 06:09:35;;;;;;;;;;;;;;;13.77;95.84;97309.09;5049106;28;19964;-57
2022/10/15 06:12:05;;;;;;;;;;;;;;;13.76;95.89;97318.41;5027775;28;20429;-57
2022/10/15 06:14:33;;;;;;;;;;;;;;;13.75;95.75;97308.66;5053474;28;19925;-57
2022/10/15 06:17:01;;;;;;;;;;;;;;;13.78;95.67;97308.72;5062777;28;20368;-56
2022/10/15 06:19:29;;;;;;;;;;;;;;;13.81;95.71;97318.19;5053064;28;19924;-56
2022/10/15 06:21:56;;;;;;;;;;;;;;;13.81;95.74;97323.63;5069870;28;20360;-56
2022/10/15 06:27:17;;;;;;;;;;;;;;;13.86;95.74;97332.38;5069920;28;19935;-56
2022/10/15 06:29:45;;;;;;;;;;;;;;;13.89;95.75;97333.59;5073647;28;19924;-56
2022/10/15 06:32:13;;;;;;;;;;;;;;;13.85;95.58;97330.78;5067967;28;19970;-56
2022/10/15 06:34:42;;;;;;;;;;;;;;;13.89;95.54;97341.78;5071509;28;20017;-56
2022/10/15 06:37:10;;;;;;;;;;;;;;;13.93;95.56;97345.44;5071203;28;19925;-56
2022/10/15 06:39:39;;;;;;;;;;;;;;;13.99;95.38;97346.75;5054663;28;19935;-56
2022/10/15 06:42:11;;;;;;;;;;;;;;;14.01;95.25;97352.69;5074299;28;20691;-56
2022/10/15 06:44:44;;;;;;;;;;;;;;;14.03;95.26;97355.06;5071547;28;19928;-56
2022/10/15 06:47:15;;;;;;;;;;;;;;;14.09;95.22;97359.94;5049977;28;20403;-56
2022/10/15 06:49:50;;;;;;;;;;;;;;;14.11;95.00;97362.31;5053244;28;19929;-56
2022/10/15 06:55:10;;;;;;;;;;;;;;;14.14;94.97;97370.63;5048439;28;19931;-56
2022/10/15 06:57:38;;;;;;;;;;;;;;;14.13;94.96;97371.75;5033111;28;20007;-56
2022/10/15 07:00:06;;;;;;;;;;;;;;;14.16;94.89;97376.50;5048102;28;19928;-56
2022/10/15 07:02:37;;;;;;;;;;;;;;;14.17;94.65;97374.59;5068867;28;20349;-56
2022/10/15 07:05:06;;;;;;;;;;;;;;;14.20;94.89;97384.03;5070963;28;20285;-56
2022/10/15 07:07:33;;;;;;;;;;;;;;;14.24;94.74;97390.41;5070747;28;19932;-56
2022/10/15 07:10:02;;;;;;;;;;;;;;;14.28;94.77;97385.81;5072545;28;20002;-56
2022/10/15 07:12:31;;;;;;;;;;;;;;;14.27;94.90;97393.19;5070553;28;20273;-56
2022/10/15 07:14:59;;;;;;;;;;;;;;;14.33;94.88;97396.50;5071303;28;19924;-56
2022/10/15 07:17:28;;;;;;;;;;;;;;;14.28;95.15;97394.81;5067290;28;19931;-56
2022/10/15 07:19:56;;;;;;;;;;;;;;;14.29;95.23;97396.41;5071718;28;19931;-56
2022/10/15 07:22:24;;;;;;;;;;;;;;;14.33;95.21;97399.25;5067966;28;19932;-56
2022/10/15 07:24:52;;;;;;;;;;;;;;;14.34;95.16;97400.81;5065634;28;19928;-56
2022/10/15 07:27:20;;;;;;;;;;;;;;;14.37;95.42;97408.31;5078359;28;19924;-56
2022/10/15 07:29:51;;;;;;;;;;;;;;;14.33;95.11;97404.72;5070259;28;19928;-56
2022/10/15 07:32:19;;;;;;;;;;;;;;;14.38;95.28;97404.44;5045494;28;19939;-57
2022/10/15 07:34:49;;;;;;;;;;;;;;;14.39;95.49;97408.78;5072924;28;19924;-57
2022/10/15 07:37:18;;;;;;;;;;;;;;;14.41;95.29;97406.47;5071496;28;20028;-57
2022/10/15 07:39:45;;;;;;;;;;;;;;;14.42;95.35;97413.53;5071870;28;19924;-57
2022/10/15 07:42:13;;;;;;;;;;;;;;;14.44;95.51;97415.94;5070635;28;19948;-57
2022/10/15 07:44:45;;;;;;;;;;;;;;;14.47;95.43;97420.69;5068727;28;19932;-57
2022/10/15 07:47:15;;;;;;;;;;;;;;;14.49;95.57;97424.72;5066337;28;19925;-57
2022/10/15 07:49:43;;;;;;;;;;;;;;;14.50;95.77;97417.31;5069149;28;19931;-57
2022/10/15 07:52:11;;;;;;;;;;;;;;;14.51;96.01;97421.63;5071829;28;19971;-57
2022/10/15 07:55:04;;;;;;;;;;;;;;;14.60;96.07;97431.25;5060253;28;19933;-57
2022/10/15 07:57:32;;;;;;;;;;;;;;;14.65;95.86;97438.41;5070788;28;19929;-57
2022/10/15 08:00:00;;;;;;;;;;;;;;;14.64;95.89;97439.53;5071878;28;20022;-57
2022/10/15 08:02:40;;;;;;;;;;;;;;;14.68;96.07;97443.16;5052389;28;19936;-57
2022/10/15 08:05:08;;;;;;;;;;;;;;;14.74;95.94;97452.72;5054493;28;19933;-57
2022/10/15 08:07:37;;;;;;;;;;;;;;;14.78;95.53;97453.59;5053065;28;20370;-57
2022/10/15 08:10:12;;;;;;;;;;;;;;;14.81;95.59;97450.19;5054313;28;19924;-57
2022/10/15 08:12:40;;;;;;;;;;;;;;;14.85;95.63;97462.00;5046244;28;21652;-57
2022/10/15 08:15:08;;;;;;;;;;;;;;;14.85;95.70;97461.19;5052815;28;19932;-57
2022/10/15 08:17:36;;;;;;;;;;;;;;;14.86;95.48;97463.59;5032077;28;20393;-57
2022/10/15 08:20:06;;;;;;;;;;;;;;;14.86;95.70;97468.25;5051231;28;20290;-57
2022/10/15 08:22:34;;;;;;;;;;;;;;;14.85;96.04;97463.94;5047588;28;20606;-57
2022/10/15 08:25:02;;;;;;;;;;;;;;;14.85;95.94;97467.47;5051033;28;20374;-57
2022/10/15 08:27:55;;;;;;;;;;;;;;;14.92;95.94;97484.09;5053776;28;19924;-57
2022/10/15 08:30:48;;;;;;;;;;;;;;;14.90;96.31;97485.56;5042638;28;20035;-57
2022/10/15 08:33:16;;;;;;;;;;;;;;;14.98;95.77;97483.81;5048949;28;19925;-57
2022/10/15 08:35:45;;;;;;;;;;;;;;;14.97;95.82;97487.69;5048932;28;19929;-58
2022/10/15 08:38:13;;;;;;;;;;;;;;;14.95;96.06;97496.25;5048334;28;19924;-57
2022/10/15 08:40:46;;;;;;;;;;;;;;;14.97;95.84;97488.50;5046951;28;19967;-57
2022/10/15 08:43:17;;;;;;;;;;;;;;;14.96;96.05;97499.78;5037843;28;19967;-57
2022/10/15 08:45:47;;;;;;;;;;;;;;;14.98;95.52;97500.25;5048204;28;19928;-57
2022/10/15 08:48:16;;;;;;;;;;;;;;;14.97;96.28;97502.19;5068191;28;19979;-57
2022/10/15 08:50:45;;;;;;;;;;;;;;;15.00;96.47;97514.34;5069952;28;20351;-57
2022/10/15 08:53:19;;;;;;;;;;;;;;;15.02;96.73;97507.41;5064053;28;19971;-57
2022/10/15 08:55:49;;;;;;;;;;;;;;;15.08;95.51;97521.63;5069527;28;19960;-57
2022/10/15 08:58:22;;;;;;;;;;;;;;;15.08;95.46;97510.69;5067133;28;19955;-57
2022/10/15 09:00:51;;;;;;;;;;;;;;;15.11;95.58;97521.69;5056316;28;19933;-57
2022/10/15 09:03:28;;;;;;;;;;;;;;;15.11;95.52;97521.69;5029460;28;20141;-57
2022/10/15 09:05:57;;;;;;;;;;;;;;;15.16;95.79;97528.84;5053028;28;19925;-57
2022/10/15 09:08:57;;;;;;;;;;;;;;;15.19;95.82;97528.97;5049255;28;20237;-57
2022/10/15 09:11:29;;;;;;;;;;;;;;;15.28;95.16;97525.25;5053394;28;19933;-57
2022/10/15 09:13:57;;;;;;;;;;;;;;;15.34;93.96;97526.56;5050962;28;19924;-57
2022/10/15 09:16:25;;;;;;;;;;;;;;;15.34;93.71;97526.56;5052721;28;19932;-56
2022/10/15 09:18:53;;;;;;;;;;;;;;;15.37;93.75;97525.88;5068543;28;19924;-57
2022/10/15 09:21:22;;;;;;;;;;;;;;;15.39;93.59;97532.63;5067897;28;19938;-57
2022/10/15 09:23:53;;;;;;;;;;;;;;;15.41;93.29;97535.78;5067972;28;19929;-57
2022/10/15 09:26:25;;;;;;;;;;;;;;;15.46;92.83;97532.00;5067616;28;19951;-58
2022/10/15 09:28:56;;;;;;;;;;;;;;;15.50;92.81;97543.00;5067937;28;19925;-58
2022/10/15 09:31:25;;;;;;;;;;;;;;;15.51;92.25;97544.63;5063370;28;19932;-55
2022/10/15 09:33:54;;;;;;;;;;;;;;;15.59;91.39;97544.44;5064845;28;19924;-55
2022/10/15 09:36:29;;;;;;;;;;;;;;;15.62;91.68;97551.97;5066645;28;20058;-55
2022/10/15 09:39:01;;;;;;;;;;;;;;;15.67;92.21;97543.50;5071701;28;19959;-57
2022/10/15 09:41:33;;;;;;;;;;;;;;;15.70;92.27;97547.47;5068853;28;19995;-58
2022/10/15 09:44:01;;;;;;;;;;;;;;;15.74;92.06;97553.84;5069708;28;19928;-57
2022/10/15 09:46:42;;;;;;;;;;;;;;;15.74;92.41;97559.31;5065907;28;19928;-58
2022/10/15 09:49:17;;;;;;;;;;;;;;;15.77;92.14;97561.38;5067838;28;19928;-58
2022/10/15 09:51:54;;;;;;;;;;;;;;;15.79;92.01;97566.47;5066999;28;20270;-58
2022/10/15 09:54:23;;;;;;;;;;;;;;;15.85;91.76;97565.84;5075197;28;19950;-58
2022/10/15 09:56:54;;;;;;;;;;;;;;;15.90;91.61;97568.31;5068282;28;19983;-58
2022/10/15 09:59:22;;;;;;;;;;;;;;;15.94;91.18;97573.91;5068266;28;20015;-58
2022/10/15 10:01:58;;;;;;;;;;;;;;;15.96;91.47;97574.34;5048686;28;19960;-57
2022/10/15 10:04:27;;;;;;;;;;;;;;;16.01;90.79;97574.06;5065516;28;19924;-58
2022/10/15 10:06:57;;;;;;;;;;;;;;;15.95;90.69;97576.28;5068523;28;19925;-57
2022/10/15 10:09:25;;;;;;;;;;;;;;;15.89;90.75;97574.16;5050106;28;21119;-57
2022/10/15 10:14:54;;;;;;;;;;;;;;;15.85;90.53;97586.97;5061687;28;19928;-58
2022/10/15 10:17:23;;;;;;;;;;;;;;;15.89;90.07;97583.19;5063535;28;19935;-57
2022/10/15 10:20:04;;;;;;;;;;;;;;;15.86;90.72;97583.88;5068440;28;19932;-58
2022/10/15 10:22:32;;;;;;;;;;;;;;;15.88;90.93;97580.81;5048722;28;19978;-58
2022/10/15 10:25:00;;;;;;;;;;;;;;;15.92;90.49;97589.88;5068127;28;19936;-58
2022/10/15 10:27:29;;;;;;;;;;;;;;;15.89;90.96;97587.88;5067961;28;19924;-57
2022/10/15 10:30:52;;;;;;;;;;;;;;;15.96;90.98;97588.03;5059151;28;20416;-58
2022/10/15 10:33:24;;;;;;;;;;;;;;;16.03;90.96;97585.47;5067756;28;19925;-58
2022/10/15 10:35:52;;;;;;;;;;;;;;;16.11;90.68;97589.97;5040090;28;19934;-58
2022/10/15 10:38:21;;;;;;;;;;;;;;;16.20;89.47;97598.81;5069715;28;19971;-58
2022/10/15 10:40:52;;;;;;;;;;;;;;;16.23;89.02;97592.59;5072027;28;19925;-57
2022/10/15 10:43:25;;;;;;;;;;;;;;;16.28;88.50;97594.28;5068163;28;19932;-57
2022/10/15 10:45:54;;;;;;;;;;;;;;;16.29;87.98;97595.06;5061680;28;19932;-58
2022/10/15 10:48:22;;;;;;;;;;;;;;;16.30;88.12;97596.66;5035079;28;19933;-57
2022/10/15 10:51:01;;;;;;;;;;;;;;;16.32;88.66;97588.88;5052066;28;19928;-58
2022/10/15 10:53:33;;;;;;;;;;;;;;;16.34;87.84;97597.53;5059102;28;19928;-57
2022/10/15 10:56:02;;;;;;;;;;;;;;;16.42;87.62;97594.59;5053485;28;19929;-57
2022/10/15 10:58:32;;;;;;;;;;;;;;;16.49;87.76;97599.44;5052089;28;19971;-57
2022/10/15 11:01:01;;;;;;;;;;;;;;;16.64;87.40;97598.63;5055538;28;19932;-58
2022/10/15 11:03:34;;;;;;;;;;;;;;;16.85;86.25;97590.09;5059508;28;20281;-57
2022/10/15 11:06:28;;;;;;;;;;;;;;;17.06;84.88;97600.72;5052768;28;19935;-57
2022/10/15 11:09:01;;;;;;;;;;;;;;;17.22;82.52;97598.69;5059357;28;19928;-57
2022/10/15 11:11:33;;;;;;;;;;;;;;;17.35;82.27;97593.81;5053750;28;19932;-57
2022/10/15 11:14:06;;;;;;;;;;;;;;;17.45;81.12;97612.44;5036824;28;20377;-57
2022/10/15 11:16:36;;;;;;;;;;;;;;;17.46;78.93;97603.06;5025787;28;19959;-57
2022/10/15 11:19:10;;;;;;;;;;;;;;;17.50;79.21;97611.38;5052925;28;19936;-57
2022/10/15 11:21:50;;;;;;;;;;;;;;;17.38;78.56;97606.03;5050287;28;19932;-57
2022/10/15 11:24:19;;;;;;;;;;;;;;;17.34;78.60;97618.91;5052188;28;19925;-57
2022/10/15 11:26:50;;;;;;;;;;;;;;;17.29;78.20;97612.53;5052420;28;19933;-57
2022/10/15 11:29:47;;;;;;;;;;;;;;;17.16;77.44;97605.63;5050349;28;20459;-57
2022/10/15 11:32:20;;;;;;;;;;;;;;;17.20;77.60;97614.69;5061237;28;20365;-57
2022/10/15 11:34:57;;;;;;;;;;;;;;;17.11;77.19;97618.84;5066031;28;20337;-58
2022/10/15 11:37:29;;;;;;;;;;;;;;;17.05;78.16;97615.59;5071743;28;19925;-57
2022/10/15 11:40:06;;;;;;;;;;;;;;;17.03;78.64;97617.88;5074753;28;19932;-57
2022/10/15 11:42:38;;;;;;;;;;;;;;;17.05;78.16;97617.56;5068507;28;19930;-57
2022/10/15 11:45:26;;;;;;;;;;;;;;;16.99;77.51;97622.50;5069428;28;19939;-54
2022/10/15 11:47:55;;;;;;;;;;;;;;;16.91;77.27;97626.25;5067206;28;20015;-55
2022/10/15 11:50:26;;;;;;;;;;;;;;;16.85;77.34;97622.22;5065061;28;19928;-55
2022/10/15 11:53:07;;;;;;;;;;;;;;;16.84;77.58;97607.72;5068913;28;19947;-55
2022/10/15 11:55:37;;;;;;;;;;;;;;;16.80;78.21;97603.28;5051211;28;19924;-55
2022/10/15 11:58:06;;;;;;;;;;;;;;;16.80;78.06;97601.34;5068454;28;20001;-55
2022/10/15 12:00:38;;;;;;;;;;;;;;;16.84;78.95;97606.91;5028338;28;19967;-55
2022/10/15 12:03:07;;;;;;;;;;;;;;;16.87;78.37;97603.44;5033147;28;20378;-55
2022/10/15 12:05:35;;;;;;;;;;;;;;;16.91;78.10;97593.34;5029953;28;19960;-56
2022/10/15 12:08:03;;;;;;;;;;;;;;;16.88;78.42;97600.31;5026128;28;19936;-55
2022/10/15 12:10:44;;;;;;;;;;;;;;;16.86;78.39;97594.41;5027005;28;19925;-55
2022/10/15 12:13:13;;;;;;;;;;;;;;;16.83;78.54;97578.69;5028684;28;19929;-55
2022/10/15 12:15:45;;;;;;;;;;;;;;;16.87;78.91;97601.47;5025260;28;19933;-57
2022/10/15 12:18:39;;;;;;;;;;;;;;;16.85;77.77;97595.56;5027748;28;20297;-57
2022/10/15 12:21:22;;;;;;;;;;;;;;;16.88;78.02;97589.34;5030048;28;19986;-57
2022/10/15 12:23:50;;;;;;;;;;;;;;;16.86;77.37;97597.16;5029923;28;20298;-57
2022/10/15 12:26:30;;;;;;;;;;;;;;;16.89;77.71;97590.16;5029006;28;19936;-57
2022/10/15 12:29:03;;;;;;;;;;;;;;;16.92;77.70;97584.75;5046733;28;19975;-57
2022/10/15 12:31:45;;;;;;;;;;;;;;;16.85;78.32;97583.81;5030800;28;19929;-57
2022/10/15 12:34:30;;;;;;;;;;;;;;;16.80;78.08;97592.31;5030208;28;20321;-57
2022/10/15 12:37:03;;;;;;;;;;;;;;;16.74;78.85;97589.88;5029193;28;19929;-57
2022/10/15 12:39:31;;;;;;;;;;;;;;;16.78;78.82;97592.69;5030536;28;19933;-57
2022/10/15 12:42:23;;;;;;;;;;;;;;;16.71;80.02;97584.28;5030163;28;19932;-57
2022/10/15 12:44:51;;;;;;;;;;;;;;;16.65;80.54;97585.69;5028554;28;19987;-57
2022/10/15 12:47:34;;;;;;;;;;;;;;;16.68;81.07;97585.00;5030060;28;19940;-57
2022/10/15 12:50:04;;;;;;;;;;;;;;;16.70;81.26;97586.22;5023608;28;19925;-57
2022/10/15 12:52:52;;;;;;;;;;;;;;;16.79;81.35;97583.31;5023389;28;20012;-57
2022/10/15 12:55:25;;;;;;;;;;;;;;;16.82;82.07;97588.06;5027615;28;19925;-57
2022/10/15 12:58:17;;;;;;;;;;;;;;;16.94;81.75;97578.91;5055661;28;20312;-57
2022/10/15 13:00:46;;;;;;;;;;;;;;;17.02;80.17;97577.88;5066955;28;20898;-57
2022/10/15 13:03:18;;;;;;;;;;;;;;;17.13;80.19;97584.38;5068718;28;20016;-57
2022/10/15 13:05:49;;;;;;;;;;;;;;;17.14;80.23;97580.47;5063892;28;19925;-57
2022/10/15 13:08:29;;;;;;;;;;;;;;;17.04;79.72;97575.56;5069214;28;20026;-54
2022/10/15 13:10:59;;;;;;;;;;;;;;;17.08;80.07;97590.16;5052953;28;19979;-55
2022/10/15 13:13:28;;;;;;;;;;;;;;;17.05;79.42;97588.16;5065630;28;20011;-55
2022/10/15 13:15:57;;;;;;;;;;;;;;;17.02;79.35;97575.13;5069230;28;19924;-55
2022/10/15 13:18:26;;;;;;;;;;;;;;;16.97;79.43;97569.94;5063428;28;20020;-57
2022/10/15 13:20:58;;;;;;;;;;;;;;;16.97;78.82;97580.91;5048926;28;19928;-58
2022/10/15 13:23:27;;;;;;;;;;;;;;;16.90;79.26;97586.28;5064770;28;20023;-55
2022/10/15 13:26:11;;;;;;;;;;;;;;;16.85;80.23;97584.59;5069166;28;19970;-58
2022/10/15 13:28:40;;;;;;;;;;;;;;;16.90;80.05;97586.28;5067443;28;20417;-58
2022/10/15 13:31:16;;;;;;;;;;;;;;;16.95;80.45;97588.72;5062219;28;20366;-56
2022/10/15 13:33:46;;;;;;;;;;;;;;;17.06;79.53;97581.50;5068250;28;19928;-56
2022/10/15 13:36:18;;;;;;;;;;;;;;;17.14;78.63;97580.47;5068888;28;20311;-56
2022/10/15 13:38:50;;;;;;;;;;;;;;;17.28;78.57;97578.00;5063999;28;19924;-55